Time;durP1;ratioP1;P1;durP2;ratioP2;P2;SDS_P1;SDS_P2;PMS_P1;PMS_P2;Temp;Humidity;BMP_temperature;BMP_pressure;BME280_temperature;BME280_humidity;BME280_pressure;Samples;Min_cycle;Max_cycle;Signal;HPM_P1;HPM_P2
2021/11/22 00:02:00;;;;;;;4.70;1.20;;;;;;;5.66;81.76;102102.00;5056572;28;20028;-74
2021/11/22 00:04:25;;;;;;;4.30;1.20;;;;;;;5.72;82.04;102105.81;5056501;28;20036;-74
2021/11/22 00:06:51;;;;;;;6.07;1.45;;;;;;;5.64;82.27;102108.22;5056446;28;20100;-74
2021/11/22 00:09:16;;;;;;;5.53;1.35;;;;;;;5.62;82.76;102117.75;5038697;28;20017;-74
2021/11/22 00:11:42;;;;;;;3.20;1.10;;;;;;;5.58;82.59;102116.34;5022019;28;20123;-74
2021/11/22 00:14:08;;;;;;;5.53;1.65;;;;;;;5.63;82.34;102122.75;5038412;28;20060;-74
2021/11/22 00:16:34;;;;;;;7.47;1.08;;;;;;;5.62;82.37;102122.91;5056246;28;20432;-74
2021/11/22 00:18:59;;;;;;;3.90;1.15;;;;;;;5.53;82.56;102123.63;5056098;28;20067;-74
2021/11/22 00:21:24;;;;;;;5.93;1.40;;;;;;;5.55;82.80;102129.41;5055967;28;20021;-73
2021/11/22 00:23:50;;;;;;;6.72;1.60;;;;;;;5.50;82.94;102131.56;5037883;28;20051;-74
2021/11/22 00:26:16;;;;;;;6.82;2.00;;;;;;;5.56;82.91;102134.44;5055820;28;20107;-74
2021/11/22 00:28:42;;;;;;;4.57;1.50;;;;;;;5.52;83.00;102134.78;5055993;28;20531;-74
2021/11/22 00:31:07;;;;;;;9.02;1.80;;;;;;;5.40;82.83;102132.25;5055865;28;20103;-73
2021/11/22 00:33:32;;;;;;;5.80;1.75;;;;;;;5.41;83.17;102143.34;5056531;28;20016;-73
2021/11/22 00:35:58;;;;;;;4.30;1.30;;;;;;;5.37;83.61;102141.94;5038074;28;20047;-75
2021/11/22 00:38:23;;;;;;;6.55;1.33;;;;;;;5.38;83.52;102146.13;5038756;28;20021;-74
2021/11/22 00:40:50;;;;;;;8.27;1.42;;;;;;;5.33;83.77;102154.19;5037934;28;20025;-74
2021/11/22 00:43:15;;;;;;;8.02;1.27;;;;;;;5.32;83.82;102161.97;5055771;28;20025;-73
2021/11/22 00:45:41;;;;;;;14.70;1.50;;;;;;;5.29;83.70;102159.66;5037873;28;20448;-74
2021/11/22 00:48:06;;;;;;;9.40;1.20;;;;;;;5.30;83.55;102159.56;5055732;28;20025;-74
2021/11/22 00:50:34;;;;;;;4.32;1.05;;;;;;;5.31;83.66;102161.16;5037711;28;20486;-74
2021/11/22 00:53:00;;;;;;;11.70;1.17;;;;;;;5.33;84.02;102168.75;5055454;28;20033;-72
2021/11/22 00:55:26;;;;;;;3.85;0.90;;;;;;;5.43;83.49;102175.59;5055462;28;20029;-73
2021/11/22 00:57:51;;;;;;;6.30;0.93;;;;;;;5.47;83.36;102175.34;5055352;28;20033;-73
2021/11/22 01:00:19;;;;;;;6.13;0.90;;;;;;;5.53;82.95;102170.59;5055425;28;20494;-74
2021/11/22 01:02:45;;;;;;;3.45;0.98;;;;;;;5.48;82.61;102170.13;5037486;28;20052;-74
2021/11/22 01:05:10;;;;;;;2.70;0.98;;;;;;;5.52;82.45;102179.19;5055176;28;20451;-74
2021/11/22 01:07:36;;;;;;;6.35;1.40;;;;;;;5.52;82.32;102179.19;5037384;28;20024;-74
2021/11/22 01:10:04;;;;;;;5.53;0.90;;;;;;;5.59;82.21;102188.06;5055193;28;20025;-74
2021/11/22 01:12:29;;;;;;;6.03;1.27;;;;;;;5.59;82.93;102192.38;5036350;28;20075;-74
2021/11/22 01:14:56;;;;;;;7.60;1.17;;;;;;;5.58;82.63;102199.25;5055103;28;20480;-74
2021/11/22 01:17:21;;;;;;;6.18;1.25;;;;;;;5.51;82.98;102204.97;5055022;28;20067;-74
2021/11/22 01:19:51;;;;;;;10.05;1.20;;;;;;;5.40;83.63;102203.22;5055033;28;20480;-74
2021/11/22 01:22:16;;;;;;;8.10;1.33;;;;;;;5.29;83.45;102206.59;5037157;28;20052;-74
2021/11/22 01:24:41;;;;;;;8.57;1.15;;;;;;;5.31;84.03;102206.50;5037085;28;20048;-73
2021/11/22 01:27:07;;;;;;;3.85;1.00;;;;;;;5.28;83.52;102215.25;5054857;28;20074;-74
2021/11/22 01:29:32;;;;;;;8.43;1.50;;;;;;;5.24;84.04;102211.28;5054912;28;20402;-74
2021/11/22 01:31:57;;;;;;;6.93;1.10;;;;;;;5.34;83.60;102227.59;5036905;28;20052;-74
2021/11/22 01:34:22;;;;;;;4.93;0.98;;;;;;;5.25;84.09;102225.72;5054739;28;20025;-74
2021/11/22 01:36:48;;;;;;;5.13;0.90;;;;;;;5.27;83.67;102223.06;5036765;28;20029;-74
2021/11/22 01:39:13;;;;;;;5.30;1.10;;;;;;;5.23;83.63;102225.03;5036670;28;20040;-74
2021/11/22 01:41:38;;;;;;;2.03;0.80;;;;;;;5.16;83.82;102231.56;5054656;28;20099;-74
2021/11/22 01:44:04;;;;;;;5.30;0.90;;;;;;;5.07;84.07;102234.81;5036626;28;20157;-74
2021/11/22 01:46:29;;;;;;;9.95;1.88;;;;;;;5.12;83.68;102233.53;5036597;28;20546;-75
2021/11/22 01:48:56;;;;;;;4.25;1.27;;;;;;;5.12;83.80;102237.81;5036597;28;20021;-74
2021/11/22 01:51:21;;;;;;;5.30;1.10;;;;;;;5.14;83.55;102247.03;5036541;28;20498;-74
2021/11/22 01:53:47;;;;;;;11.98;1.30;;;;;;;5.15;83.71;102240.16;5054312;28;20021;-72
2021/11/22 01:56:13;;;;;;;3.75;1.15;;;;;;;5.06;83.89;102248.53;5054488;28;20035;-74
2021/11/22 01:58:38;;;;;;;4.57;1.08;;;;;;;5.03;84.02;102251.34;5054213;28;20052;-73
2021/11/22 02:01:05;;;;;;;4.68;1.08;;;;;;;4.98;84.10;102246.56;5054322;28;20028;-73
2021/11/22 02:03:30;;;;;;;9.00;1.88;;;;;;;5.01;84.71;102255.78;5054129;28;20119;-73
2021/11/22 02:05:55;;;;;;;6.88;1.10;;;;;;;4.94;84.90;102247.72;5053963;28;20088;-73
2021/11/22 02:08:22;;;;;;;3.53;0.90;;;;;;;4.98;84.52;102257.63;5036189;28;20107;-73
2021/11/22 02:10:48;;;;;;;3.72;0.95;;;;;;;5.00;84.02;102259.25;5053989;28;20028;-73
2021/11/22 02:13:15;;;;;;;5.95;1.05;;;;;;;4.95;83.47;102268.09;5053979;28;20082;-73
2021/11/22 02:15:40;;;;;;;10.52;1.40;;;;;;;4.96;83.94;102271.47;5053934;28;20033;-73
2021/11/22 02:18:07;;;;;;;5.13;1.00;;;;;;;4.91;83.49;102266.69;5035915;28;20079;-73
2021/11/22 02:20:33;;;;;;;5.22;0.93;;;;;;;4.93;83.56;102275.09;5053891;28;20035;-73
2021/11/22 02:23:01;;;;;;;3.85;0.77;;;;;;;4.90;83.44;102279.63;5035774;28;20391;-73
2021/11/22 02:25:29;;;;;;;7.40;0.90;;;;;;;4.97;83.10;102278.22;5053721;28;20036;-72
2021/11/22 02:27:56;;;;;;;5.13;1.30;;;;;;;4.99;82.82;102286.63;5054277;28;20102;-72
2021/11/22 02:30:29;;;;;;;3.30;1.00;;;;;;;4.92;82.96;102277.75;5036012;28;20472;-73
2021/11/22 02:32:55;;;;;;;;;;;;;;;4.88;82.89;102284.84;5036242;28;20047;-73
2021/11/22 02:35:21;;;;;;;8.00;1.58;;;;;;;4.86;82.33;102281.59;5035745;28;19909;-73
2021/11/22 02:37:47;;;;;;;2.50;0.82;;;;;;;4.91;82.78;102288.94;5035854;28;20025;-74
2021/11/22 02:40:13;;;;;;;10.05;1.02;;;;;;;4.88;81.79;102284.84;5053650;28;20033;-73
2021/11/22 02:42:42;;;;;;;6.45;1.15;;;;;;;4.86;81.92;102298.69;5053571;28;20383;-73
2021/11/22 02:45:17;;;;;;;10.50;2.38;;;;;;;4.88;81.50;102300.22;5053618;28;20017;-73
2021/11/22 02:47:43;;;;;;;5.28;1.10;;;;;;;4.88;81.89;102304.53;5035624;28;20021;-73
2021/11/22 02:50:11;;;;;;;10.18;2.05;;;;;;;4.89;81.80;102293.34;5035589;28;20020;-73
2021/11/22 02:52:37;;;;;;;7.05;1.08;;;;;;;4.78;81.91;102299.25;5035673;28;20048;-73
2021/11/22 02:55:05;;;;;;;6.82;1.13;;;;;;;4.72;82.63;102304.84;5035554;28;20044;-73
2021/11/22 02:57:30;;;;;;;4.18;0.82;;;;;;;4.67;82.68;102306.91;5053283;28;20028;-73
2021/11/22 02:59:55;;;;;;;5.18;1.00;;;;;;;4.70;82.13;102304.94;5053349;28;20521;-73
2021/11/22 03:02:21;;;;;;;2.95;0.85;;;;;;;4.69;81.22;102315.28;5035534;28;20033;-72
2021/11/22 03:04:46;;;;;;;3.08;0.80;;;;;;;4.72;81.84;102309.97;5053228;28;20037;-73
2021/11/22 03:07:12;;;;;;;2.83;0.80;;;;;;;4.72;81.84;102310.78;5053263;28;20032;-73
2021/11/22 03:09:39;;;;;;;4.53;0.90;;;;;;;4.80;81.08;102317.06;5035417;28;20017;-73
2021/11/22 03:12:08;;;;;;;5.38;0.85;;;;;;;4.76;81.79;102319.03;5035423;28;20028;-73
2021/11/22 03:14:34;;;;;;;7.50;0.80;;;;;;;4.72;80.79;102321.00;5035589;28;20028;-73
2021/11/22 03:17:00;;;;;;;6.25;0.95;;;;;;;4.70;81.41;102324.63;5035684;28;20020;-73
2021/11/22 03:19:25;;;;;;;6.80;0.88;;;;;;;4.69;80.74;102333.19;5053121;28;20482;-73
2021/11/22 03:21:52;;;;;;;5.00;1.00;;;;;;;4.66;80.80;102338.53;5035312;28;20033;-73
2021/11/22 03:24:17;;;;;;;7.22;1.02;;;;;;;4.65;80.93;102336.91;5053133;28;20415;-73
2021/11/22 03:26:43;;;;;;;7.30;1.00;;;;;;;4.65;80.49;102337.72;5053132;28;20032;-73
2021/11/22 03:29:09;;;;;;;4.75;0.95;;;;;;;4.60;81.56;102346.66;5035321;28;20028;-73
2021/11/22 03:31:36;;;;;;;7.43;0.90;;;;;;;4.59;81.03;102339.91;5053113;28;20017;-73
2021/11/22 03:34:04;;;;;;;5.60;0.82;;;;;;;4.53;81.57;102348.84;5053813;28;20021;-73
2021/11/22 03:36:31;;;;;;;8.05;1.20;;;;;;;4.52;81.20;102350.59;5039017;28;20150;-73
2021/11/22 03:38:57;;;;;;;6.90;0.90;;;;;;;4.52;81.27;102353.16;5039007;28;20380;-73
2021/11/22 03:41:23;;;;;;;3.80;0.63;;;;;;;4.48;81.40;102364.53;5056839;28;20025;-73
2021/11/22 03:43:57;;;;;;;5.60;1.00;;;;;;;4.47;81.96;102368.03;5056862;28;20387;-73
2021/11/22 03:46:23;;;;;;;8.63;0.80;;;;;;;4.48;81.20;102372.22;5056771;28;20028;-73
2021/11/22 03:48:49;;;;;;;4.55;0.73;;;;;;;4.47;80.99;102368.03;5056545;28;20033;-73
2021/11/22 03:51:15;;;;;;;4.75;0.68;;;;;;;4.47;80.11;102368.03;5056713;28;20032;-73
2021/11/22 03:53:40;;;;;;;9.70;1.02;;;;;;;4.45;80.22;102376.75;5056585;28;20475;-73
2021/11/22 03:56:07;;;;;;;8.38;1.83;;;;;;;4.47;80.54;102373.16;5038744;28;20021;-73
2021/11/22 03:58:32;;;;;;;4.55;0.80;;;;;;;4.40;81.16;102381.34;5056478;28;20056;-73
2021/11/22 04:00:57;;;;;;;2.78;0.60;;;;;;;4.41;80.95;102388.13;5056509;28;20082;-73
2021/11/22 04:03:23;;;;;;;4.78;1.05;;;;;;;4.35;81.99;102388.56;5038582;28;20031;-73
2021/11/22 04:05:49;;;;;;;3.22;0.57;;;;;;;4.35;81.12;102396.25;5056376;28;20045;-73
2021/11/22 04:08:15;;;;;;;5.22;1.60;;;;;;;4.36;81.73;102397.88;5056347;28;20013;-73
2021/11/22 04:10:41;;;;;;;3.42;0.70;;;;;;;4.32;80.85;102404.13;5056324;28;20032;-73
2021/11/22 04:13:06;;;;;;;4.28;0.80;;;;;;;4.28;80.79;102398.38;5056293;28;20376;-73
2021/11/22 04:15:33;;;;;;;3.97;0.88;;;;;;;4.34;80.77;102415.06;5056287;28;20082;-73
2021/11/22 04:17:58;;;;;;;6.95;0.95;;;;;;;4.27;80.72;102414.69;5056382;28;20483;-74
2021/11/22 04:20:24;;;;;;;1.88;0.63;;;;;;;4.21;81.48;102422.78;5056140;28;20021;-73
2021/11/22 04:22:49;;;;;;;4.07;0.85;;;;;;;4.19;81.20;102416.94;5056147;28;20033;-74
2021/11/22 04:25:15;;;;;;;2.30;0.98;;;;;;;4.14;81.31;102418.97;5056340;28;20493;-73
2021/11/22 04:27:40;;;;;;;5.90;0.95;;;;;;;4.09;81.19;102421.88;5038185;28;20123;-73
2021/11/22 04:30:09;;;;;;;3.80;0.98;;;;;;;4.00;82.61;102418.19;5056018;28;20487;-73
2021/11/22 04:32:35;;;;;;;4.93;0.85;;;;;;;3.97;82.58;102423.53;5055919;28;20048;-73
2021/11/22 04:35:00;;;;;;;6.32;1.55;;;;;;;4.04;82.90;102429.03;5055863;28;20025;-73
2021/11/22 04:37:28;;;;;;;1.85;0.55;;;;;;;4.09;81.51;102431.28;5055851;28;20379;-73
2021/11/22 04:39:54;;;;;;;2.35;0.70;;;;;;;4.10;81.53;102433.72;5037956;28;20029;-74
2021/11/22 04:42:19;;;;;;;3.40;0.80;;;;;;;4.13;81.59;102443.75;5055746;28;20040;-73
2021/11/22 04:44:45;;;;;;;5.07;0.80;;;;;;;4.02;82.93;102444.47;5055937;28;20051;-73
2021/11/22 04:47:12;;;;;;;2.78;0.80;;;;;;;3.94;83.23;102449.31;5055646;28;20025;-73
2021/11/22 04:49:38;;;;;;;3.33;1.05;;;;;;;3.88;82.66;102447.13;5055620;28;20017;-73
2021/11/22 04:52:06;;;;;;;4.80;0.73;;;;;;;3.77;83.18;102457.25;5037734;28;20028;-73
2021/11/22 04:54:32;;;;;;;2.95;0.80;;;;;;;3.76;82.88;102446.22;5037652;28;20032;-73
2021/11/22 04:56:58;;;;;;;6.05;1.20;;;;;;;3.69;83.13;102445.00;5037703;28;20365;-73
2021/11/22 04:59:23;;;;;;;6.80;1.10;;;;;;;3.60;82.57;102461.75;5055330;28;20035;-73
2021/11/22 05:01:48;;;;;;;3.38;1.30;;;;;;;3.61;83.27;102465.94;5037523;28;20022;-73
2021/11/22 05:04:14;;;;;;;8.48;1.25;;;;;;;3.50;82.92;102470.94;5037298;28;20492;-73
2021/11/22 05:06:39;;;;;;;3.47;0.95;;;;;;;3.53;83.79;102469.91;5037394;28;20129;-73
2021/11/22 05:09:04;;;;;;;4.10;1.00;;;;;;;3.46;83.74;102461.84;5055334;28;20539;-73
2021/11/22 05:11:29;;;;;;;4.97;1.00;;;;;;;3.52;83.27;102463.16;5037463;28;20039;-73
2021/11/22 05:13:54;;;;;;;5.57;1.00;;;;;;;3.40;82.76;102469.91;5055496;28;20023;-73
2021/11/22 05:16:20;;;;;;;6.05;0.90;;;;;;;3.43;83.93;102471.44;5055093;28;20021;-73
2021/11/22 05:18:45;;;;;;;3.47;0.90;;;;;;;3.52;82.74;102478.50;5055609;28;20108;-73
2021/11/22 05:21:11;;;;;;;6.43;1.17;;;;;;;3.44;82.96;102484.09;5037129;28;20028;-74
2021/11/22 05:23:36;;;;;;;3.25;0.98;;;;;;;3.43;83.56;102481.66;5055019;28;20426;-73
2021/11/22 05:26:02;;;;;;;4.95;1.13;;;;;;;3.43;84.00;102479.94;5037142;28;20024;-73
2021/11/22 05:28:27;;;;;;;9.88;0.93;;;;;;;3.49;83.65;102488.94;5054962;28;20380;-73
2021/11/22 05:30:52;;;;;;;4.13;1.33;;;;;;;3.42;83.67;102493.59;5054924;28;20020;-73
2021/11/22 05:33:18;;;;;;;7.05;1.20;;;;;;;3.35;83.52;102503.41;5054816;28;20090;-73
2021/11/22 05:35:43;;;;;;;3.10;1.10;;;;;;;3.34;83.36;102499.22;5036844;28;20025;-73
2021/11/22 05:38:08;;;;;;;5.32;1.45;;;;;;;3.36;83.75;102494.00;5054614;28;20021;-73
2021/11/22 05:40:34;;;;;;;6.18;1.10;;;;;;;3.31;83.49;102511.34;5055202;28;20028;-73
2021/11/22 05:42:59;;;;;;;3.25;1.05;;;;;;;3.25;83.72;102507.47;5054847;28;20106;-73
2021/11/22 05:45:25;;;;;;;2.63;1.50;;;;;;;3.15;83.89;102514.06;5054580;28;20056;-73
2021/11/22 05:47:50;;;;;;;6.65;1.30;;;;;;;3.20;83.91;102508.69;5054374;28;20028;-73
2021/11/22 05:50:18;;;;;;;6.60;1.67;;;;;;;3.16;84.15;102513.97;5054445;28;20021;-73
2021/11/22 05:52:49;;;;;;;5.05;2.75;;;;;;;3.05;84.47;102518.09;5036553;28;20387;-73
2021/11/22 05:55:23;;;;;;;10.50;4.93;;;;;;;2.97;84.40;102522.88;5054464;28;20024;-73
2021/11/22 05:57:48;;;;;;;12.80;6.05;;;;;;;2.95;84.96;102533.16;5036079;28;20035;-73
2021/11/22 06:00:14;;;;;;;12.55;6.15;;;;;;;2.82;85.16;102524.59;5057399;28;20103;-74
2021/11/22 06:02:39;;;;;;;7.18;2.78;;;;;;;2.75;85.24;102536.94;5036823;28;20079;-74
2021/11/22 06:05:05;;;;;;;4.65;2.17;;;;;;;2.79;84.92;102540.97;5053975;28;20051;-74
2021/11/22 06:07:30;;;;;;;4.53;2.35;;;;;;;2.82;84.11;102545.03;5054138;28;20017;-74
2021/11/22 06:09:58;;;;;;;7.03;2.40;;;;;;;2.83;83.78;102544.97;5036294;28;20016;-72
2021/11/22 06:12:23;;;;;;;6.63;2.60;;;;;;;2.88;84.33;102547.25;5054281;28;20025;-72
2021/11/22 06:14:52;;;;;;;6.45;2.45;;;;;;;2.92;84.48;102548.69;5054050;28;20438;-73
2021/11/22 06:17:17;;;;;;;7.65;2.17;;;;;;;2.83;84.48;102544.97;5054284;28;20368;-73
2021/11/22 06:19:43;;;;;;;7.25;2.38;;;;;;;2.70;85.02;102546.59;5054148;28;20021;-74
2021/11/22 06:22:08;;;;;;;5.25;2.60;;;;;;;2.55;85.83;102561.09;5053911;28;20468;-72
2021/11/22 06:24:33;;;;;;;11.00;4.15;;;;;;;2.42;86.36;102560.19;5054703;28;20029;-73
2021/11/22 06:26:59;;;;;;;7.68;3.47;;;;;;;2.30;86.25;102564.25;5035909;28;20021;-73
2021/11/22 06:29:24;;;;;;;4.88;3.00;;;;;;;2.30;86.45;102566.81;5054052;28;20463;-73
2021/11/22 06:31:50;;;;;;;8.38;3.70;;;;;;;2.34;86.69;102568.28;5035753;28;20471;-73
2021/11/22 06:34:15;;;;;;;9.07;3.28;;;;;;;2.33;86.25;102565.81;5053995;28;20075;-74
2021/11/22 06:36:41;;;;;;;8.52;3.20;;;;;;;2.38;86.35;102574.84;5053799;28;20032;-73
2021/11/22 06:39:06;;;;;;;9.60;3.10;;;;;;;2.38;86.09;102576.56;5035631;28;20032;-73
2021/11/22 06:41:32;;;;;;;10.77;3.10;;;;;;;2.40;86.01;102585.78;5053515;28;20020;-73
2021/11/22 06:47:19;;;;;;;4.30;2.40;;;;;;;2.23;86.58;102589.31;5053841;28;20074;-73
2021/11/22 06:49:44;;;;;;;9.95;2.95;;;;;;;2.19;86.67;102599.81;5053745;28;20099;-72
2021/11/22 06:52:10;;;;;;;6.53;2.65;;;;;;;2.19;87.08;102607.44;5035604;28;20067;-73
2021/11/22 06:54:35;;;;;;;13.93;2.92;;;;;;;2.20;87.06;102609.91;5053297;28;20021;-72
2021/11/22 06:57:01;;;;;;;4.53;2.45;;;;;;;2.25;86.90;102622.41;5053309;28;20031;-73
2021/11/22 06:59:28;;;;;;;5.60;2.55;;;;;;;2.29;86.14;102623.03;5053107;28;20028;-73
2021/11/22 07:01:54;;;;;;;6.50;2.70;;;;;;;2.17;86.75;102627.13;5053336;28;20021;-72
2021/11/22 07:04:19;;;;;;;5.70;2.13;;;;;;;2.21;86.28;102623.47;5053162;28;20140;-73
2021/11/22 07:06:44;;;;;;;11.57;2.58;;;;;;;2.21;85.88;102636.22;5035531;28;20029;-73
2021/11/22 07:09:10;;;;;;;5.82;2.38;;;;;;;2.15;86.57;102639.94;5054209;28;20032;-73
2021/11/22 07:11:35;;;;;;;4.03;2.40;;;;;;;2.13;86.87;102644.31;5057477;28;20475;-73
2021/11/22 07:14:03;;;;;;;6.47;1.90;;;;;;;2.17;86.52;102644.97;5057334;28;20127;-73
2021/11/22 07:16:29;;;;;;;7.35;2.35;;;;;;;2.30;86.47;102658.66;5039426;28;20078;-73
2021/11/22 07:18:54;;;;;;;6.18;2.13;;;;;;;2.36;85.54;102645.56;5057740;28;20035;-74
2021/11/22 07:21:19;;;;;;;15.32;6.57;;;;;;;2.36;85.87;102654.94;5039231;28;20021;-73
2021/11/22 07:23:45;;;;;;;12.60;5.80;;;;;;;2.39;86.70;102665.00;5057233;28;20083;-73
2021/11/22 07:26:10;;;;;;;12.45;5.82;;;;;;;2.39;86.42;102653.06;5057162;28;20017;-73
2021/11/22 07:28:36;;;;;;;11.18;5.28;;;;;;;2.45;86.12;102657.81;5057048;28;20024;-73
2021/11/22 07:31:01;;;;;;;10.75;3.75;;;;;;;2.48;86.33;102672.13;5056977;28;20103;-73
2021/11/22 07:33:26;;;;;;;7.93;4.38;;;;;;;2.54;85.81;102665.84;5056944;28;20479;-74
2021/11/22 07:35:52;;;;;;;9.27;3.30;;;;;;;2.59;85.60;102680.00;5039113;28;20035;-74
2021/11/22 07:38:18;;;;;;;5.72;2.95;;;;;;;2.58;85.64;102678.31;5038854;28;20021;-74
2021/11/22 07:40:44;;;;;;;10.38;3.08;;;;;;;2.52;85.83;102694.00;5057212;28;20047;-74
2021/11/22 07:43:09;;;;;;;9.70;2.53;;;;;;;2.49;85.09;102702.66;5038825;28;20025;-74
2021/11/22 07:45:35;;;;;;;7.50;2.88;;;;;;;2.53;85.37;102698.19;5038903;28;20025;-72
2021/11/22 07:48:01;;;;;;;11.63;2.80;;;;;;;2.58;85.11;102706.41;5038912;28;20426;-74
2021/11/22 07:50:29;;;;;;;11.73;2.50;;;;;;;2.64;85.10;102700.13;5056527;28;20082;-74
2021/11/22 07:52:55;;;;;;;7.00;2.65;;;;;;;2.64;85.27;102697.56;5038770;28;20025;-74
2021/11/22 07:55:23;;;;;;;6.45;2.90;;;;;;;2.81;85.58;102702.53;5038909;28;20021;-73
2021/11/22 07:57:50;;;;;;;7.55;2.97;;;;;;;2.84;85.13;102715.13;5039039;28;20025;-72
2021/11/22 08:00:22;;;;;;;7.38;2.95;;;;;;;2.84;84.88;102727.88;5022232;28;20110;-72
2021/11/22 08:02:48;;;;;;;7.70;2.92;;;;;;;2.79;84.28;102722.25;5056507;28;20036;-73
2021/11/22 08:05:14;;;;;;;6.32;3.25;;;;;;;2.75;85.21;102722.50;5056362;28;20407;-73
2021/11/22 08:07:41;;;;;;;10.25;3.80;;;;;;;2.77;85.70;102724.06;5056566;28;20103;-73
2021/11/22 08:12:43;;;;;;;9.15;4.15;;;;;;;2.91;85.69;102738.59;5056987;28;20056;-74
2021/11/22 08:15:12;;;;;;;11.93;4.43;;;;;;;3.14;85.14;102734.69;5056265;28;20029;-73
2021/11/22 08:17:40;;;;;;;18.60;4.43;;;;;;;3.21;84.61;102745.38;5056283;28;20025;-73
2021/11/22 08:20:07;;;;;;;11.55;4.28;;;;;;;3.25;84.72;102734.03;5037829;28;20028;-73
2021/11/22 08:22:33;;;;;;;12.02;4.18;;;;;;;3.32;84.86;102743.00;5038103;28;20079;-73
2021/11/22 08:24:58;;;;;;;11.20;4.18;;;;;;;3.59;84.76;102736.22;5038104;28;20029;-73
2021/11/22 08:27:27;;;;;;;13.40;3.97;;;;;;;3.78;83.85;102747.88;5038092;28;20025;-73
2021/11/22 08:29:53;;;;;;;11.55;3.88;;;;;;;3.78;83.15;102753.00;5055964;28;20017;-73
2021/11/22 08:32:19;;;;;;;8.23;3.65;;;;;;;3.90;83.01;102756.53;5056075;28;20036;-73
2021/11/22 08:34:45;;;;;;;15.43;4.18;;;;;;;3.90;82.19;102754.00;5055896;28;20021;-73
2021/11/22 08:37:10;;;;;;;14.55;3.50;;;;;;;4.12;82.46;102750.94;5038245;28;20124;-73
2021/11/22 08:39:36;;;;;;;11.50;3.30;;;;;;;4.22;81.83;102757.91;5055665;28;20426;-73
2021/11/22 08:42:02;;;;;;;8.45;3.30;;;;;;;4.29;81.35;102763.47;5038179;28;20117;-74
2021/11/22 08:44:28;;;;;;;7.78;3.22;;;;;;;4.30;80.37;102765.94;5055640;28;20150;-73
2021/11/22 08:46:53;;;;;;;10.80;2.75;;;;;;;4.51;80.11;102763.72;5056130;28;20075;-73
2021/11/22 08:49:19;;;;;;;9.35;2.70;;;;;;;4.56;79.53;102766.00;5055504;28;20113;-74
2021/11/22 08:51:44;;;;;;;6.38;2.63;;;;;;;4.52;80.98;102774.81;5055368;28;20483;-74
2021/11/22 08:54:11;;;;;;;9.15;2.67;;;;;;;4.71;80.33;102770.13;5055593;28;20036;-73
2021/11/22 08:56:36;;;;;;;5.80;2.30;;;;;;;4.85;79.37;102773.53;5055255;28;20029;-74
2021/11/22 08:59:02;;;;;;;5.00;2.28;;;;;;;5.02;78.83;102782.69;5055607;28;20419;-73
2021/11/22 09:01:29;;;;;;;9.32;2.17;;;;;;;5.10;78.50;102781.25;5055265;28;20021;-73
2021/11/22 09:03:55;;;;;;;7.13;2.03;;;;;;;5.18;77.76;102770.50;5055110;28;20052;-73
2021/11/22 09:09:42;;;;;;;7.85;1.80;;;;;;;5.45;76.13;102784.94;5055221;28;20050;-73
2021/11/22 09:12:07;;;;;;;10.80;1.77;;;;;;;5.60;75.43;102789.84;5037196;28;20464;-73
2021/11/22 09:14:33;;;;;;;4.50;1.48;;;;;;;5.73;75.09;102796.72;5055089;28;20078;-73
2021/11/22 09:16:58;;;;;;;5.80;2.05;;;;;;;5.85;74.66;102796.66;5054976;28;20100;-74
2021/11/22 09:19:24;;;;;;;6.95;1.35;;;;;;;6.02;74.17;102799.84;5055141;28;20021;-75
2021/11/22 09:21:49;;;;;;;3.22;1.00;;;;;;;5.98;74.00;102798.41;5055033;28;20103;-75
2021/11/22 09:24:15;;;;;;;7.55;1.65;;;;;;;5.99;74.45;102820.59;5054797;28;20021;-74
2021/11/22 09:26:40;;;;;;;6.47;1.60;;;;;;;6.11;73.63;102822.28;5055286;28;20021;-73
2021/11/22 09:29:05;;;;;;;5.45;1.02;;;;;;;6.19;73.67;102814.06;5036659;28;20024;-73
2021/11/22 09:31:31;;;;;;;5.60;1.30;;;;;;;6.22;73.57;102821.56;5036445;28;20083;-73
2021/11/22 09:33:57;;;;;;;10.52;1.33;;;;;;;6.33;72.53;102835.25;5036325;28;20021;-74
2021/11/22 09:36:23;;;;;;;8.00;1.02;;;;;;;6.33;72.59;102834.44;5054474;28;20020;-74
2021/11/22 09:38:49;;;;;;;5.65;1.00;;;;;;;6.54;72.03;102838.03;5036891;28;20468;-73
2021/11/22 09:41:15;;;;;;;6.97;1.45;;;;;;;6.61;71.07;102843.56;5054523;28;20503;-73
2021/11/22 09:43:46;;;;;;;4.20;1.13;;;;;;;12.25;55.70;102841.91;5036681;28;20422;-74
2021/11/22 09:46:13;;;;;;;10.63;1.08;;;;;;;16.71;42.25;102835.56;5054477;28;20021;-75
2021/11/22 09:48:39;;;;;;;2.90;0.93;;;;;;;17.84;38.51;102839.72;5054598;28;20028;-76
2021/11/22 09:51:07;;;;;;;3.58;1.00;;;;;;;19.01;35.94;102848.94;5054316;28;20025;-76
2021/11/22 09:53:32;;;;;;;3.47;1.00;;;;;;;19.78;34.34;102850.50;5054407;28;20048;-76
2021/11/22 09:55:57;;;;;;;3.10;1.00;;;;;;;20.43;32.91;102854.22;5054406;28;20501;-76
2021/11/22 09:58:23;;;;;;;6.88;1.17;;;;;;;20.86;33.27;102845.94;5054676;28;20025;-76
2021/11/22 10:00:51;;;;;;;6.15;1.52;;;;;;;18.66;35.10;102847.06;5054495;28;20032;-75
2021/11/22 10:03:20;;;;;;;5.15;1.20;;;;;;;16.38;39.92;102837.66;5054075;28;20551;-76
2021/11/22 10:05:47;;;;;;;3.58;0.85;;;;;;;11.68;49.99;102852.47;5054172;28;20056;-75
2021/11/22 10:08:18;;;;;;;6.90;1.25;;;;;;;10.76;54.33;102857.47;5036153;28;20025;-74
2021/11/22 10:10:52;;;;;;;6.50;1.17;;;;;;;13.37;46.44;102856.88;5036436;28;20133;-75
2021/11/22 10:13:24;;;;;;;4.32;0.90;;;;;;;14.13;46.13;102842.22;5054211;28;20055;-75
2021/11/22 10:15:52;;;;;;;4.53;1.10;;;;;;;18.34;37.05;102837.97;5036112;28;20028;-75
2021/11/22 10:18:23;;;;;;;4.45;1.10;;;;;;;19.74;34.15;102854.56;5053819;28;20028;-76
2021/11/22 10:20:50;;;;;;;4.53;1.00;;;;;;;21.86;29.81;102830.53;5054107;28;20033;-75
2021/11/22 10:23:25;;;;;;;5.47;1.00;;;;;;;22.20;29.15;102839.03;5035949;28;20056;-75
2021/11/22 10:25:53;;;;;;;2.08;0.70;;;;;;;22.22;29.19;102842.25;5036068;28;20556;-75
2021/11/22 10:28:23;;;;;;;5.90;1.15;;;;;;;22.51;28.36;102835.53;5053759;28;20020;-76
2021/11/22 10:30:54;;;;;;;4.75;0.82;;;;;;;23.74;26.94;102831.06;5035905;28;20090;-76
2021/11/22 10:33:21;;;;;;;;;;;;;;;23.23;27.64;102831.53;5036464;28;20064;-75
2021/11/22 10:35:48;;;;;;;3.80;1.20;;;;;;;23.19;27.97;102837.25;5053490;28;19952;-75
2021/11/22 10:38:20;;;;;;;3.83;0.90;;;;;;;23.80;26.12;102832.81;5053470;28;20075;-75
2021/11/22 10:40:52;;;;;;;4.18;1.15;;;;;;;24.51;24.79;102833.72;5053538;28;20028;-75
2021/11/22 10:43:17;;;;;;;4.22;1.05;;;;;;;23.96;25.55;102839.25;5053407;28;20033;-75
2021/11/22 10:45:48;;;;;;;5.18;1.02;;;;;;;23.15;26.58;102836.06;5053430;28;20024;-76
2021/11/22 10:48:21;;;;;;;3.58;0.98;;;;;;;23.14;26.32;102841.59;5053488;28;20107;-75
2021/11/22 10:51:07;;;;;;;4.03;0.77;;;;;;;22.08;27.46;102835.44;5036259;28;20025;-75
2021/11/22 10:53:48;;;;;;;5.82;1.00;;;;;;;15.57;39.42;102839.78;5052649;28;20184;-76
2021/11/22 10:56:15;;;;;;;4.07;1.00;;;;;;;12.76;45.64;102840.41;5053142;28;20043;-73
2021/11/22 10:58:59;;;;;;;4.53;1.00;;;;;;;12.13;48.06;102838.72;5053169;28;20120;-74
2021/11/22 11:01:33;;;;;;;6.25;1.40;;;;;;;11.41;50.80;102834.31;5053475;28;20025;-74
2021/11/22 11:04:04;;;;;;;7.55;1.45;;;;;;;17.51;38.09;102847.16;5035077;28;20067;-74
2021/11/22 11:06:39;;;;;;;3.80;1.13;;;;;;;19.17;32.75;102853.88;5053171;28;20033;-75
2021/11/22 11:09:07;;;;;;;4.95;0.93;;;;;;;20.39;30.18;102842.50;5053282;28;20044;-73
2021/11/22 11:11:32;;;;;;;2.92;0.90;;;;;;;20.75;29.93;102846.56;5053099;28;20025;-76
2021/11/22 11:14:07;;;;;;;2.22;0.65;;;;;;;20.91;29.77;102846.09;5035233;28;20027;-75
2021/11/22 11:16:33;;;;;;;4.13;0.90;;;;;;;21.63;28.40;102838.97;5035280;28;20371;-76
2021/11/22 11:19:02;;;;;;;1.67;0.60;;;;;;;20.18;31.18;102846.13;5053048;28;20047;-76
2021/11/22 11:21:30;;;;;;;4.22;1.27;;;;;;;19.32;33.58;102851.13;5035347;28;20021;-76
2021/11/22 11:23:57;;;;;;;2.92;1.00;;;;;;;15.81;39.78;102849.28;5035010;28;20029;-76
2021/11/22 11:26:24;;;;;;;3.97;0.88;;;;;;;13.69;44.75;102851.00;5052962;28;20017;-75
2021/11/22 11:28:50;;;;;;;6.00;1.00;;;;;;;13.93;44.54;102852.09;5052993;28;20021;-76
2021/11/22 11:31:16;;;;;;;3.75;0.90;;;;;;;19.38;33.99;102850.34;5035090;28;20021;-74
2021/11/22 11:33:41;;;;;;;6.28;1.10;;;;;;;21.23;30.02;102854.09;5052926;28;20051;-75
2021/11/22 11:36:22;;;;;;;4.90;0.98;;;;;;;22.55;28.46;102858.78;5053175;28;20053;-75
2021/11/22 11:39:16;;;;;;;3.13;0.93;;;;;;;22.81;26.90;102860.38;5034886;28;20490;-75